sensor_id;sensor_type;location;lat;lon;timestamp;temperature;humidity
74488;DHT22;63019;51.080;13.642;2022-09-12T00:00:29;15.30;81.40
74488;DHT22;63019;51.080;13.642;2022-09-12T00:01:32;15.20;81.40
74488;DHT22;63019;51.080;13.642;2022-09-12T00:02:34;15.30;81.10
74488;DHT22;63019;51.080;13.642;2022-09-12T00:03:36;15.30;81.10
74488;DHT22;63019;51.080;13.642;2022-09-12T00:04:39;15.30;80.80
74488;DHT22;63019;51.080;13.642;2022-09-12T00:05:45;15.30;81.30
74488;DHT22;63019;51.080;13.642;2022-09-12T00:06:47;15.30;81.40
74488;DHT22;63019;51.080;13.642;2022-09-12T00:07:48;15.30;81.60
74488;DHT22;63019;51.080;13.642;2022-09-12T00:08:53;15.30;81.80
74488;DHT22;63019;51.080;13.642;2022-09-12T00:09:55;15.30;81.70
74488;DHT22;63019;51.080;13.642;2022-09-12T00:10:57;15.20;81.80
74488;DHT22;63019;51.080;13.642;2022-09-12T00:11:59;15.20;82.00
74488;DHT22;63019;51.080;13.642;2022-09-12T00:13:01;15.20;81.90
74488;DHT22;63019;51.080;13.642;2022-09-12T00:14:03;15.20;82.00
74488;DHT22;63019;51.080;13.642;2022-09-12T00:15:06;15.20;82.60
74488;DHT22;63019;51.080;13.642;2022-09-12T00:16:15;15.20;82.30
74488;DHT22;63019;51.080;13.642;2022-09-12T00:17:17;15.10;82.70
74488;DHT22;63019;51.080;13.642;2022-09-12T00:18:19;15.10;82.80
74488;DHT22;63019;51.080;13.642;2022-09-12T00:19:20;15.10;82.20
74488;DHT22;63019;51.080;13.642;2022-09-12T00:20:22;15.10;82.10
74488;DHT22;63019;51.080;13.642;2022-09-12T00:21:24;15.20;82.90
74488;DHT22;63019;51.080;13.642;2022-09-12T00:22:25;15.10;82.80
74488;DHT22;63019;51.080;13.642;2022-09-12T00:23:27;15.10;82.80
74488;DHT22;63019;51.080;13.642;2022-09-12T00:24:29;15.10;82.80
74488;DHT22;63019;51.080;13.642;2022-09-12T00:25:30;15.20;82.40
74488;DHT22;63019;51.080;13.642;2022-09-12T00:26:32;15.20;82.50
74488;DHT22;63019;51.080;13.642;2022-09-12T00:27:34;15.20;82.50
74488;DHT22;63019;51.080;13.642;2022-09-12T00:28:37;15.20;82.10
74488;DHT22;63019;51.080;13.642;2022-09-12T00:29:40;15.20;82.90
74488;DHT22;63019;51.080;13.642;2022-09-12T00:30:42;15.10;82.40
74488;DHT22;63019;51.080;13.642;2022-09-12T00:31:45;15.10;82.40
74488;DHT22;63019;51.080;13.642;2022-09-12T00:32:46;15.10;82.30
74488;DHT22;63019;51.080;13.642;2022-09-12T00:33:50;15.10;81.90
74488;DHT22;63019;51.080;13.642;2022-09-12T00:34:51;15.20;81.70
74488;DHT22;63019;51.080;13.642;2022-09-12T00:35:53;15.20;81.90
74488;DHT22;63019;51.080;13.642;2022-09-12T00:36:55;15.10;81.50
74488;DHT22;63019;51.080;13.642;2022-09-12T00:37:56;15.10;81.60
74488;DHT22;63019;51.080;13.642;2022-09-12T00:38:58;15.20;81.60
74488;DHT22;63019;51.080;13.642;2022-09-12T00:40:00;15.10;81.40
74488;DHT22;63019;51.080;13.642;2022-09-12T00:41:03;15.10;81.40
74488;DHT22;63019;51.080;13.642;2022-09-12T00:42:05;15.10;81.30
74488;DHT22;63019;51.080;13.642;2022-09-12T00:43:32;15.10;81.40
74488;DHT22;63019;51.080;13.642;2022-09-12T00:45:35;15.10;81.50
74488;DHT22;63019;51.080;13.642;2022-09-12T00:46:48;15.00;81.00
74488;DHT22;63019;51.080;13.642;2022-09-12T00:47:50;15.00;80.50
74488;DHT22;63019;51.080;13.642;2022-09-12T00:49:07;15.00;81.30
74488;DHT22;63019;51.080;13.642;2022-09-12T00:50:13;15.00;81.10
74488;DHT22;63019;51.080;13.642;2022-09-12T00:51:17;15.00;81.50
74488;DHT22;63019;51.080;13.642;2022-09-12T00:53:21;15.00;81.20
74488;DHT22;63019;51.080;13.642;2022-09-12T00:54:27;15.00;81.10
74488;DHT22;63019;51.080;13.642;2022-09-12T00:55:46;14.90;81.50
74488;DHT22;63019;51.080;13.642;2022-09-12T00:56:52;14.90;80.90
74488;DHT22;63019;51.080;13.642;2022-09-12T00:58:07;14.90;81.20
74488;DHT22;63019;51.080;13.642;2022-09-12T00:59:20;14.90;81.10
74488;DHT22;63019;51.080;13.642;2022-09-12T01:00:24;14.80;80.40
74488;DHT22;63019;51.080;13.642;2022-09-12T01:01:27;14.80;80.50
74488;DHT22;63019;51.080;13.642;2022-09-12T01:02:33;14.80;80.90
74488;DHT22;63019;51.080;13.642;2022-09-12T01:03:35;14.80;80.90
74488;DHT22;63019;51.080;13.642;2022-09-12T01:04:38;14.90;80.80
74488;DHT22;63019;51.080;13.642;2022-09-12T01:05:43;14.90;81.00
74488;DHT22;63019;51.080;13.642;2022-09-12T01:06:47;14.90;80.30
74488;DHT22;63019;51.080;13.642;2022-09-12T01:07:51;14.90;80.20
74488;DHT22;63019;51.080;13.642;2022-09-12T01:08:53;14.80;80.30
74488;DHT22;63019;51.080;13.642;2022-09-12T01:09:55;14.80;80.50
74488;DHT22;63019;51.080;13.642;2022-09-12T01:10:57;14.80;80.50
74488;DHT22;63019;51.080;13.642;2022-09-12T01:12:01;14.70;80.00
74488;DHT22;63019;51.080;13.642;2022-09-12T01:13:05;14.70;79.70
74488;DHT22;63019;51.080;13.642;2022-09-12T01:14:08;14.70;79.70
74488;DHT22;63019;51.080;13.642;2022-09-12T01:15:10;14.70;80.60
74488;DHT22;63019;51.080;13.642;2022-09-12T01:16:12;14.60;80.50
74488;DHT22;63019;51.080;13.642;2022-09-12T01:17:14;14.60;80.70
74488;DHT22;63019;51.080;13.642;2022-09-12T01:18:24;14.50;81.10
74488;DHT22;63019;51.080;13.642;2022-09-12T01:23:09;14.50;81.80
74488;DHT22;63019;51.080;13.642;2022-09-12T01:31:07;14.40;81.60
74488;DHT22;63019;51.080;13.642;2022-09-12T01:36:33;14.50;81.50
74488;DHT22;63019;51.080;13.642;2022-09-12T01:39:13;14.50;82.10
74488;DHT22;63019;51.080;13.642;2022-09-12T01:40:32;14.50;82.30
74488;DHT22;63019;51.080;13.642;2022-09-12T01:43:22;14.50;81.60
74488;DHT22;63019;51.080;13.642;2022-09-12T01:44:34;14.50;81.40
74488;DHT22;63019;51.080;13.642;2022-09-12T01:45:42;14.60;81.40
74488;DHT22;63019;51.080;13.642;2022-09-12T01:47:04;14.50;81.40
74488;DHT22;63019;51.080;13.642;2022-09-12T01:49:20;14.50;82.00
74488;DHT22;63019;51.080;13.642;2022-09-12T01:50:27;14.50;81.60
74488;DHT22;63019;51.080;13.642;2022-09-12T01:51:41;14.50;81.60
74488;DHT22;63019;51.080;13.642;2022-09-12T01:52:58;14.50;82.10
74488;DHT22;63019;51.080;13.642;2022-09-12T01:54:18;14.50;82.40
74488;DHT22;63019;51.080;13.642;2022-09-12T01:55:25;14.40;82.60
74488;DHT22;63019;51.080;13.642;2022-09-12T01:56:31;14.40;82.50
74488;DHT22;63019;51.080;13.642;2022-09-12T01:57:41;14.50;82.50
74488;DHT22;63019;51.080;13.642;2022-09-12T01:58:56;14.40;82.30
74488;DHT22;63019;51.080;13.642;2022-09-12T02:00:04;14.40;82.90
74488;DHT22;63019;51.080;13.642;2022-09-12T02:01:13;14.50;82.30
74488;DHT22;63019;51.080;13.642;2022-09-12T02:02:25;14.40;83.00
74488;DHT22;63019;51.080;13.642;2022-09-12T02:03:32;14.40;83.30
74488;DHT22;63019;51.080;13.642;2022-09-12T02:04:40;14.40;82.40
74488;DHT22;63019;51.080;13.642;2022-09-12T02:05:49;14.50;82.40
74488;DHT22;63019;51.080;13.642;2022-09-12T02:06:57;14.40;82.30
74488;DHT22;63019;51.080;13.642;2022-09-12T02:08:10;14.40;82.00
74488;DHT22;63019;51.080;13.642;2022-09-12T02:09:29;14.50;82.20
74488;DHT22;63019;51.080;13.642;2022-09-12T02:10:56;14.50;82.20
74488;DHT22;63019;51.080;13.642;2022-09-12T02:12:00;14.50;81.90
74488;DHT22;63019;51.080;13.642;2022-09-12T02:13:12;14.50;81.70
74488;DHT22;63019;51.080;13.642;2022-09-12T02:14:23;14.50;81.50
74488;DHT22;63019;51.080;13.642;2022-09-12T02:15:34;14.50;82.40
74488;DHT22;63019;51.080;13.642;2022-09-12T02:16:42;14.50;82.00
74488;DHT22;63019;51.080;13.642;2022-09-12T02:17:49;14.50;81.50
74488;DHT22;63019;51.080;13.642;2022-09-12T02:19:02;14.50;81.40
74488;DHT22;63019;51.080;13.642;2022-09-12T02:20:29;14.50;81.30
74488;DHT22;63019;51.080;13.642;2022-09-12T02:21:52;14.50;81.40
74488;DHT22;63019;51.080;13.642;2022-09-12T02:22:56;14.60;82.20
74488;DHT22;63019;51.080;13.642;2022-09-12T02:24:01;14.60;81.20
74488;DHT22;63019;51.080;13.642;2022-09-12T02:25:05;14.60;81.30
74488;DHT22;63019;51.080;13.642;2022-09-12T02:26:30;14.60;81.60
74488;DHT22;63019;51.080;13.642;2022-09-12T02:27:40;14.50;82.00
74488;DHT22;63019;51.080;13.642;2022-09-12T02:28:43;14.50;82.00
74488;DHT22;63019;51.080;13.642;2022-09-12T02:29:45;14.50;82.10
74488;DHT22;63019;51.080;13.642;2022-09-12T02:30:58;14.50;81.70
74488;DHT22;63019;51.080;13.642;2022-09-12T02:32:05;14.50;81.60
74488;DHT22;63019;51.080;13.642;2022-09-12T02:34:58;14.50;82.20
74488;DHT22;63019;51.080;13.642;2022-09-12T02:36:16;14.60;82.40
74488;DHT22;63019;51.080;13.642;2022-09-12T02:38:50;14.60;82.90
74488;DHT22;63019;51.080;13.642;2022-09-12T02:39:53;14.60;81.70
74488;DHT22;63019;51.080;13.642;2022-09-12T02:40:56;14.60;81.70
74488;DHT22;63019;51.080;13.642;2022-09-12T02:41:59;14.60;81.80
74488;DHT22;63019;51.080;13.642;2022-09-12T02:43:03;14.70;81.90
74488;DHT22;63019;51.080;13.642;2022-09-12T02:44:05;14.70;82.10
74488;DHT22;63019;51.080;13.642;2022-09-12T02:45:08;14.70;81.70
74488;DHT22;63019;51.080;13.642;2022-09-12T02:46:17;14.70;81.70
74488;DHT22;63019;51.080;13.642;2022-09-12T02:47:41;14.70;81.60
74488;DHT22;63019;51.080;13.642;2022-09-12T02:48:44;14.70;81.30
74488;DHT22;63019;51.080;13.642;2022-09-12T02:49:46;14.60;81.40
74488;DHT22;63019;51.080;13.642;2022-09-12T02:50:48;14.60;81.80
74488;DHT22;63019;51.080;13.642;2022-09-12T02:51:50;14.60;81.70
74488;DHT22;63019;51.080;13.642;2022-09-12T02:52:52;14.60;81.50
74488;DHT22;63019;51.080;13.642;2022-09-12T02:53:56;14.60;81.30
74488;DHT22;63019;51.080;13.642;2022-09-12T02:54:58;14.60;81.70
74488;DHT22;63019;51.080;13.642;2022-09-12T02:56:00;14.60;81.70
74488;DHT22;63019;51.080;13.642;2022-09-12T02:57:01;14.60;81.60
74488;DHT22;63019;51.080;13.642;2022-09-12T02:58:06;14.60;81.40
74488;DHT22;63019;51.080;13.642;2022-09-12T02:59:11;14.60;81.10
74488;DHT22;63019;51.080;13.642;2022-09-12T03:00:15;14.60;81.40
74488;DHT22;63019;51.080;13.642;2022-09-12T03:04:35;14.40;82.20
74488;DHT22;63019;51.080;13.642;2022-09-12T03:05:45;14.40;81.80
74488;DHT22;63019;51.080;13.642;2022-09-12T03:09:29;14.40;82.50
74488;DHT22;63019;51.080;13.642;2022-09-12T03:14:53;14.50;81.70
74488;DHT22;63019;51.080;13.642;2022-09-12T03:19:34;14.40;81.30
74488;DHT22;63019;51.080;13.642;2022-09-12T03:20:52;14.40;81.50
74488;DHT22;63019;51.080;13.642;2022-09-12T03:22:41;14.40;82.50
74488;DHT22;63019;51.080;13.642;2022-09-12T03:28:00;14.30;82.40
74488;DHT22;63019;51.080;13.642;2022-09-12T03:29:07;14.30;81.30
74488;DHT22;63019;51.080;13.642;2022-09-12T03:30:09;14.30;83.20
74488;DHT22;63019;51.080;13.642;2022-09-12T03:31:17;14.30;82.20
74488;DHT22;63019;51.080;13.642;2022-09-12T03:32:19;14.30;82.80
74488;DHT22;63019;51.080;13.642;2022-09-12T03:33:22;14.30;82.30
74488;DHT22;63019;51.080;13.642;2022-09-12T03:34:25;14.40;82.10
74488;DHT22;63019;51.080;13.642;2022-09-12T03:35:27;14.40;82.10
74488;DHT22;63019;51.080;13.642;2022-09-12T03:36:30;14.30;81.90
74488;DHT22;63019;51.080;13.642;2022-09-12T03:37:32;14.30;82.10
74488;DHT22;63019;51.080;13.642;2022-09-12T03:38:33;14.30;82.20
74488;DHT22;63019;51.080;13.642;2022-09-12T03:39:35;14.30;82.30
74488;DHT22;63019;51.080;13.642;2022-09-12T03:40:37;14.30;82.40
74488;DHT22;63019;51.080;13.642;2022-09-12T03:41:39;14.30;82.20
74488;DHT22;63019;51.080;13.642;2022-09-12T03:42:41;14.30;82.10
74488;DHT22;63019;51.080;13.642;2022-09-12T03:43:43;14.30;82.30
74488;DHT22;63019;51.080;13.642;2022-09-12T03:44:45;14.30;82.00
74488;DHT22;63019;51.080;13.642;2022-09-12T03:45:49;14.30;82.60
74488;DHT22;63019;51.080;13.642;2022-09-12T03:46:52;14.30;82.50
74488;DHT22;63019;51.080;13.642;2022-09-12T03:47:54;14.30;82.30
74488;DHT22;63019;51.080;13.642;2022-09-12T03:48:56;14.30;82.50
74488;DHT22;63019;51.080;13.642;2022-09-12T03:49:57;14.30;82.40
74488;DHT22;63019;51.080;13.642;2022-09-12T03:51:05;14.30;82.60
74488;DHT22;63019;51.080;13.642;2022-09-12T03:52:07;14.30;82.10
74488;DHT22;63019;51.080;13.642;2022-09-12T03:53:08;14.20;82.30
74488;DHT22;63019;51.080;13.642;2022-09-12T03:54:15;14.20;82.60
74488;DHT22;63019;51.080;13.642;2022-09-12T03:55:17;14.20;82.80
74488;DHT22;63019;51.080;13.642;2022-09-12T03:56:19;14.20;82.60
74488;DHT22;63019;51.080;13.642;2022-09-12T03:57:21;14.20;82.50
74488;DHT22;63019;51.080;13.642;2022-09-12T03:58:23;14.20;82.60
74488;DHT22;63019;51.080;13.642;2022-09-12T03:59:25;14.20;82.50
74488;DHT22;63019;51.080;13.642;2022-09-12T04:00:27;14.20;83.00
74488;DHT22;63019;51.080;13.642;2022-09-12T04:01:28;14.20;82.30
74488;DHT22;63019;51.080;13.642;2022-09-12T04:02:30;14.20;82.40
74488;DHT22;63019;51.080;13.642;2022-09-12T04:03:32;14.30;82.40
74488;DHT22;63019;51.080;13.642;2022-09-12T04:04:34;14.20;82.50
74488;DHT22;63019;51.080;13.642;2022-09-12T04:05:36;14.20;82.80
74488;DHT22;63019;51.080;13.642;2022-09-12T04:06:37;14.30;82.40
74488;DHT22;63019;51.080;13.642;2022-09-12T04:07:39;14.20;82.30
74488;DHT22;63019;51.080;13.642;2022-09-12T04:08:42;14.30;82.30
74488;DHT22;63019;51.080;13.642;2022-09-12T04:09:44;14.30;82.70
74488;DHT22;63019;51.080;13.642;2022-09-12T04:10:46;14.30;82.70
74488;DHT22;63019;51.080;13.642;2022-09-12T04:11:47;14.20;83.00
74488;DHT22;63019;51.080;13.642;2022-09-12T04:12:49;14.30;82.30
74488;DHT22;63019;51.080;13.642;2022-09-12T04:13:51;14.20;82.00
74488;DHT22;63019;51.080;13.642;2022-09-12T04:14:53;14.20;82.00
74488;DHT22;63019;51.080;13.642;2022-09-12T04:15:58;14.20;82.20
74488;DHT22;63019;51.080;13.642;2022-09-12T04:17:00;14.20;82.00
74488;DHT22;63019;51.080;13.642;2022-09-12T04:18:02;14.20;82.40
74488;DHT22;63019;51.080;13.642;2022-09-12T04:19:06;14.20;82.50
74488;DHT22;63019;51.080;13.642;2022-09-12T04:20:08;14.10;82.20
74488;DHT22;63019;51.080;13.642;2022-09-12T04:21:16;14.10;82.10
74488;DHT22;63019;51.080;13.642;2022-09-12T04:22:18;14.10;82.90
74488;DHT22;63019;51.080;13.642;2022-09-12T04:23:19;14.20;82.70
74488;DHT22;63019;51.080;13.642;2022-09-12T04:24:21;14.20;83.00
74488;DHT22;63019;51.080;13.642;2022-09-12T04:25:23;14.10;82.50
74488;DHT22;63019;51.080;13.642;2022-09-12T04:26:24;14.20;82.80
74488;DHT22;63019;51.080;13.642;2022-09-12T04:27:26;14.20;82.60
74488;DHT22;63019;51.080;13.642;2022-09-12T04:28:29;14.20;82.40
74488;DHT22;63019;51.080;13.642;2022-09-12T04:29:30;14.20;82.70
74488;DHT22;63019;51.080;13.642;2022-09-12T04:30:33;14.10;82.60
74488;DHT22;63019;51.080;13.642;2022-09-12T04:31:35;14.10;82.90
74488;DHT22;63019;51.080;13.642;2022-09-12T04:32:36;14.10;83.00
74488;DHT22;63019;51.080;13.642;2022-09-12T04:33:38;14.10;83.00
74488;DHT22;63019;51.080;13.642;2022-09-12T04:34:40;14.10;83.00
74488;DHT22;63019;51.080;13.642;2022-09-12T04:35:42;14.10;83.10
74488;DHT22;63019;51.080;13.642;2022-09-12T04:36:45;14.10;83.40
74488;DHT22;63019;51.080;13.642;2022-09-12T04:37:47;14.10;83.10
74488;DHT22;63019;51.080;13.642;2022-09-12T04:38:49;14.10;83.10
74488;DHT22;63019;51.080;13.642;2022-09-12T04:39:51;14.10;83.30
74488;DHT22;63019;51.080;13.642;2022-09-12T04:40:58;14.10;82.90
74488;DHT22;63019;51.080;13.642;2022-09-12T04:41:59;14.10;82.60
74488;DHT22;63019;51.080;13.642;2022-09-12T04:43:01;14.10;82.40
74488;DHT22;63019;51.080;13.642;2022-09-12T04:44:14;14.10;82.60
74488;DHT22;63019;51.080;13.642;2022-09-12T04:45:15;14.10;83.40
74488;DHT22;63019;51.080;13.642;2022-09-12T04:46:17;14.10;82.70
74488;DHT22;63019;51.080;13.642;2022-09-12T04:47:22;14.10;82.60
74488;DHT22;63019;51.080;13.642;2022-09-12T04:48:24;14.10;82.50
74488;DHT22;63019;51.080;13.642;2022-09-12T04:49:26;14.10;82.50
74488;DHT22;63019;51.080;13.642;2022-09-12T04:50:27;14.10;82.70
74488;DHT22;63019;51.080;13.642;2022-09-12T04:51:35;14.10;82.70
74488;DHT22;63019;51.080;13.642;2022-09-12T04:52:37;14.10;83.10
74488;DHT22;63019;51.080;13.642;2022-09-12T04:53:39;14.10;83.00
74488;DHT22;63019;51.080;13.642;2022-09-12T04:54:41;14.10;83.10
74488;DHT22;63019;51.080;13.642;2022-09-12T04:55:42;14.10;82.80
74488;DHT22;63019;51.080;13.642;2022-09-12T04:56:47;14.10;83.00
74488;DHT22;63019;51.080;13.642;2022-09-12T04:57:49;14.10;83.30
74488;DHT22;63019;51.080;13.642;2022-09-12T04:58:51;14.10;82.80
74488;DHT22;63019;51.080;13.642;2022-09-12T04:59:52;14.10;83.10
74488;DHT22;63019;51.080;13.642;2022-09-12T05:00:54;14.10;83.00
74488;DHT22;63019;51.080;13.642;2022-09-12T05:01:56;14.10;83.00
74488;DHT22;63019;51.080;13.642;2022-09-12T05:02:58;14.10;83.00
74488;DHT22;63019;51.080;13.642;2022-09-12T05:04:00;14.10;82.80
74488;DHT22;63019;51.080;13.642;2022-09-12T05:05:02;14.10;82.90
74488;DHT22;63019;51.080;13.642;2022-09-12T05:06:05;14.10;83.10
74488;DHT22;63019;51.080;13.642;2022-09-12T05:07:07;14.10;83.20
74488;DHT22;63019;51.080;13.642;2022-09-12T05:08:09;14.10;83.60
74488;DHT22;63019;51.080;13.642;2022-09-12T05:09:12;14.10;83.20
74488;DHT22;63019;51.080;13.642;2022-09-12T05:10:14;14.10;82.60
74488;DHT22;63019;51.080;13.642;2022-09-12T05:11:23;14.20;83.30
74488;DHT22;63019;51.080;13.642;2022-09-12T05:12:33;14.20;83.10
74488;DHT22;63019;51.080;13.642;2022-09-12T05:13:35;14.20;82.40
74488;DHT22;63019;51.080;13.642;2022-09-12T05:14:37;14.30;82.20
74488;DHT22;63019;51.080;13.642;2022-09-12T05:15:39;14.30;82.30
74488;DHT22;63019;51.080;13.642;2022-09-12T05:16:40;14.30;82.00
74488;DHT22;63019;51.080;13.642;2022-09-12T05:17:47;14.30;81.90
74488;DHT22;63019;51.080;13.642;2022-09-12T05:18:49;14.30;81.70
74488;DHT22;63019;51.080;13.642;2022-09-12T05:19:51;14.30;81.70
74488;DHT22;63019;51.080;13.642;2022-09-12T05:20:53;14.30;82.00
74488;DHT22;63019;51.080;13.642;2022-09-12T05:21:55;14.30;81.90
74488;DHT22;63019;51.080;13.642;2022-09-12T05:22:57;14.30;81.90
74488;DHT22;63019;51.080;13.642;2022-09-12T05:24:00;14.30;81.80
74488;DHT22;63019;51.080;13.642;2022-09-12T05:25:02;14.30;82.00
74488;DHT22;63019;51.080;13.642;2022-09-12T05:26:05;14.30;82.20
74488;DHT22;63019;51.080;13.642;2022-09-12T05:27:07;14.30;81.80
74488;DHT22;63019;51.080;13.642;2022-09-12T05:28:09;14.40;82.00
74488;DHT22;63019;51.080;13.642;2022-09-12T05:29:10;14.40;81.70
74488;DHT22;63019;51.080;13.642;2022-09-12T05:30:13;14.40;82.00
74488;DHT22;63019;51.080;13.642;2022-09-12T05:31:21;14.40;82.40
74488;DHT22;63019;51.080;13.642;2022-09-12T05:32:23;14.40;82.50
74488;DHT22;63019;51.080;13.642;2022-09-12T05:33:24;14.40;81.90
74488;DHT22;63019;51.080;13.642;2022-09-12T05:34:26;14.50;82.20
74488;DHT22;63019;51.080;13.642;2022-09-12T05:35:28;14.50;81.90
74488;DHT22;63019;51.080;13.642;2022-09-12T05:36:30;14.50;81.50
74488;DHT22;63019;51.080;13.642;2022-09-12T05:37:32;14.50;81.60
74488;DHT22;63019;51.080;13.642;2022-09-12T05:38:34;14.50;81.20
74488;DHT22;63019;51.080;13.642;2022-09-12T05:39:36;14.50;81.70
74488;DHT22;63019;51.080;13.642;2022-09-12T05:40:37;14.50;81.90
74488;DHT22;63019;51.080;13.642;2022-09-12T05:41:39;14.40;82.20
74488;DHT22;63019;51.080;13.642;2022-09-12T05:42:41;14.40;82.20
74488;DHT22;63019;51.080;13.642;2022-09-12T05:43:43;14.40;82.40
74488;DHT22;63019;51.080;13.642;2022-09-12T05:44:45;14.40;82.20
74488;DHT22;63019;51.080;13.642;2022-09-12T05:45:47;14.40;82.20
74488;DHT22;63019;51.080;13.642;2022-09-12T05:46:48;14.40;82.50
74488;DHT22;63019;51.080;13.642;2022-09-12T05:47:52;14.50;82.30
74488;DHT22;63019;51.080;13.642;2022-09-12T05:49:02;14.50;82.10
74488;DHT22;63019;51.080;13.642;2022-09-12T05:50:04;14.50;82.00
74488;DHT22;63019;51.080;13.642;2022-09-12T05:51:13;14.50;82.10
74488;DHT22;63019;51.080;13.642;2022-09-12T05:52:15;14.50;81.60
74488;DHT22;63019;51.080;13.642;2022-09-12T05:53:18;14.50;81.80
74488;DHT22;63019;51.080;13.642;2022-09-12T05:54:20;14.50;81.90
74488;DHT22;63019;51.080;13.642;2022-09-12T05:55:23;14.50;82.80
74488;DHT22;63019;51.080;13.642;2022-09-12T05:56:27;14.50;82.00
74488;DHT22;63019;51.080;13.642;2022-09-12T05:57:28;14.50;81.70
74488;DHT22;63019;51.080;13.642;2022-09-12T05:58:30;14.50;82.10
74488;DHT22;63019;51.080;13.642;2022-09-12T05:59:32;14.50;82.00
74488;DHT22;63019;51.080;13.642;2022-09-12T06:00:34;14.60;82.10
74488;DHT22;63019;51.080;13.642;2022-09-12T06:01:35;14.60;81.90
74488;DHT22;63019;51.080;13.642;2022-09-12T06:02:37;14.60;82.00
74488;DHT22;63019;51.080;13.642;2022-09-12T06:03:41;14.60;82.10
74488;DHT22;63019;51.080;13.642;2022-09-12T06:04:43;14.60;81.40
74488;DHT22;63019;51.080;13.642;2022-09-12T06:05:46;14.60;81.40
74488;DHT22;63019;51.080;13.642;2022-09-12T06:06:51;14.60;81.50
74488;DHT22;63019;51.080;13.642;2022-09-12T06:07:52;14.70;81.60
74488;DHT22;63019;51.080;13.642;2022-09-12T06:09:02;14.70;81.40
74488;DHT22;63019;51.080;13.642;2022-09-12T06:10:04;14.70;81.30
74488;DHT22;63019;51.080;13.642;2022-09-12T06:11:07;14.70;81.80
74488;DHT22;63019;51.080;13.642;2022-09-12T06:12:09;14.70;81.50
74488;DHT22;63019;51.080;13.642;2022-09-12T06:13:12;14.70;81.70
74488;DHT22;63019;51.080;13.642;2022-09-12T06:14:15;14.80;81.90
74488;DHT22;63019;51.080;13.642;2022-09-12T06:15:18;14.80;82.90
74488;DHT22;63019;51.080;13.642;2022-09-12T06:16:27;14.80;82.70
74488;DHT22;63019;51.080;13.642;2022-09-12T06:17:29;14.80;82.50
74488;DHT22;63019;51.080;13.642;2022-09-12T06:18:31;14.80;82.40
74488;DHT22;63019;51.080;13.642;2022-09-12T06:19:33;14.80;82.50
74488;DHT22;63019;51.080;13.642;2022-09-12T06:20:35;14.90;82.60
74488;DHT22;63019;51.080;13.642;2022-09-12T06:21:37;14.90;81.90
74488;DHT22;63019;51.080;13.642;2022-09-12T06:22:40;14.90;81.60
74488;DHT22;63019;51.080;13.642;2022-09-12T06:23:42;14.80;81.70
74488;DHT22;63019;51.080;13.642;2022-09-12T06:24:44;14.80;81.40
74488;DHT22;63019;51.080;13.642;2022-09-12T06:25:47;14.80;81.60
74488;DHT22;63019;51.080;13.642;2022-09-12T06:26:50;14.90;82.20
74488;DHT22;63019;51.080;13.642;2022-09-12T06:27:55;14.90;83.00
74488;DHT22;63019;51.080;13.642;2022-09-12T06:28:58;14.90;82.40
74488;DHT22;63019;51.080;13.642;2022-09-12T06:30:00;14.90;82.00
74488;DHT22;63019;51.080;13.642;2022-09-12T06:31:14;14.90;81.90
74488;DHT22;63019;51.080;13.642;2022-09-12T06:32:16;15.00;82.00
74488;DHT22;63019;51.080;13.642;2022-09-12T06:33:18;15.00;81.80
74488;DHT22;63019;51.080;13.642;2022-09-12T06:34:20;15.00;81.70
74488;DHT22;63019;51.080;13.642;2022-09-12T06:35:21;15.00;81.50
74488;DHT22;63019;51.080;13.642;2022-09-12T06:36:26;15.10;81.20
74488;DHT22;63019;51.080;13.642;2022-09-12T06:37:28;15.10;81.50
74488;DHT22;63019;51.080;13.642;2022-09-12T06:38:31;15.10;81.00
74488;DHT22;63019;51.080;13.642;2022-09-12T06:39:32;15.10;81.90
74488;DHT22;63019;51.080;13.642;2022-09-12T06:40:41;15.10;81.10
74488;DHT22;63019;51.080;13.642;2022-09-12T06:41:45;15.10;81.30
74488;DHT22;63019;51.080;13.642;2022-09-12T06:42:47;15.20;81.20
74488;DHT22;63019;51.080;13.642;2022-09-12T06:43:49;15.10;81.10
74488;DHT22;63019;51.080;13.642;2022-09-12T06:44:51;15.20;81.00
74488;DHT22;63019;51.080;13.642;2022-09-12T06:45:52;15.20;80.90
74488;DHT22;63019;51.080;13.642;2022-09-12T06:46:54;15.20;81.10
74488;DHT22;63019;51.080;13.642;2022-09-12T06:47:56;15.20;81.40
74488;DHT22;63019;51.080;13.642;2022-09-12T06:48:59;15.30;81.80
74488;DHT22;63019;51.080;13.642;2022-09-12T06:50:01;15.30;80.80
74488;DHT22;63019;51.080;13.642;2022-09-12T06:51:05;15.30;81.10
74488;DHT22;63019;51.080;13.642;2022-09-12T06:52:07;15.40;80.80
74488;DHT22;63019;51.080;13.642;2022-09-12T06:53:09;15.40;80.70
74488;DHT22;63019;51.080;13.642;2022-09-12T06:54:12;15.40;80.70
74488;DHT22;63019;51.080;13.642;2022-09-12T06:55:14;15.50;80.50
74488;DHT22;63019;51.080;13.642;2022-09-12T06:56:23;15.50;80.80
74488;DHT22;63019;51.080;13.642;2022-09-12T06:57:25;15.50;79.90
74488;DHT22;63019;51.080;13.642;2022-09-12T06:58:30;15.50;80.50
74488;DHT22;63019;51.080;13.642;2022-09-12T06:59:32;15.50;80.10
74488;DHT22;63019;51.080;13.642;2022-09-12T07:00:34;15.50;80.20
74488;DHT22;63019;51.080;13.642;2022-09-12T07:01:36;15.50;80.80
74488;DHT22;63019;51.080;13.642;2022-09-12T07:02:37;15.50;80.50
74488;DHT22;63019;51.080;13.642;2022-09-12T07:03:40;15.40;80.70
74488;DHT22;63019;51.080;13.642;2022-09-12T07:04:42;15.40;80.50
74488;DHT22;63019;51.080;13.642;2022-09-12T07:05:45;15.40;79.50
74488;DHT22;63019;51.080;13.642;2022-09-12T07:06:46;15.40;79.60
74488;DHT22;63019;51.080;13.642;2022-09-12T07:07:48;15.50;80.00
74488;DHT22;63019;51.080;13.642;2022-09-12T07:08:50;15.50;80.10
74488;DHT22;63019;51.080;13.642;2022-09-12T07:09:51;15.50;79.60
74488;DHT22;63019;51.080;13.642;2022-09-12T07:10:53;15.50;79.60
74488;DHT22;63019;51.080;13.642;2022-09-12T07:11:55;15.40;79.50
74488;DHT22;63019;51.080;13.642;2022-09-12T07:12:56;15.50;79.30
74488;DHT22;63019;51.080;13.642;2022-09-12T07:14:01;15.50;79.60
74488;DHT22;63019;51.080;13.642;2022-09-12T07:15:03;15.50;79.50
74488;DHT22;63019;51.080;13.642;2022-09-12T07:16:05;15.50;79.70
74488;DHT22;63019;51.080;13.642;2022-09-12T07:17:07;15.50;80.00
74488;DHT22;63019;51.080;13.642;2022-09-12T07:18:09;15.50;79.40
74488;DHT22;63019;51.080;13.642;2022-09-12T07:19:11;15.50;79.70
74488;DHT22;63019;51.080;13.642;2022-09-12T07:20:13;15.50;80.20
74488;DHT22;63019;51.080;13.642;2022-09-12T07:21:15;15.50;80.20
74488;DHT22;63019;51.080;13.642;2022-09-12T07:22:16;15.50;80.20